Tampa, Florida
Traffic Map
Current Weather Conditions
Tampa, Florida
Few Clouds
Few Clouds
88°
Feels Like: 99°
Wind Chill: 88° Ceiling: Unl
Heat Index: 99° Visibility: 10mi
Dew Point: 76° Wind: 5mph
Humidity: 67% Direction: 310° (NW)
Pressure: 30.1in Gusts: 0mph
Raw Report DataKTPA 161253Z 31004KT 10SM FEW029 FEW250 31/24 A3010 RMK AO2 SLP191 TCU DSNT S AND W T03110244
Traffic Incident Summary
Active as of:
Severity:
Category:
InformationThere was an issue retrieving the traffic information for this location. Please try a different location or try again shortly.
Advertisements